Terminal Aerodrome Forecast
Issued by NWS Portland, ME

Home | Current Version | Previous Version | Text Only | Print | Product List | Glossary On
Versions: 1 2 3 4 5 6 7 8 9 10 11 12 13 14 15 16 17 18 19 20 21 22
000
FTUS41 KGYX 011400 AAB
TAFCON
TAF AMD
KCON 011402Z 0114/0212 00000KT 5SM BR OVC005
     FM011500 19003KT P6SM SCT003 BKN250
     FM011700 20006KT P6SM SCT045 SCT080
     FM020000 00000KT P6SM SCT120 BKN200=

USA.gov is the U.S. government's official web portal to all federal, state and local government web resources and services.